Time;durP1;ratioP1;P1;durP2;ratioP2;P2;SDS_P1;SDS_P2;PMS_P1;PMS_P2;Temp;Humidity;BMP_temperature;BMP_pressure;BME280_temperature;BME280_humidity;BME280_pressure;Samples;Min_cycle;Max_cycle;Signal;HPM_P1;HPM_P2
2023/04/07 00:00:59;;;;;;;12.50;3.47;;;6.30;99.90;;;5.45;100.00;101634.19;4201613;28;20056;-74
2023/04/07 00:03:01;;;;;;;9.15;3.08;;;6.30;99.90;;;5.46;100.00;101639.34;4200265;28;20025;-74
2023/04/07 00:05:01;;;;;;;9.13;2.80;;;6.30;99.90;;;5.44;100.00;101637.75;4201387;28;20029;-74
2023/04/07 00:07:02;;;;;;;8.45;2.40;;;6.30;99.90;;;5.45;100.00;101637.66;4200112;28;20372;-74
2023/04/07 00:09:03;;;;;;;8.13;2.85;;;6.30;99.90;;;5.41;100.00;101636.16;4201569;28;20031;-74
2023/04/07 00:11:05;;;;;;;10.38;3.70;;;6.20;99.90;;;5.44;100.00;101640.34;4200351;28;20392;-74
2023/04/07 00:13:05;;;;;;;8.18;3.10;;;6.20;99.90;;;5.41;100.00;101636.16;4201354;28;20028;-74
2023/04/07 00:15:07;;;;;;;9.82;4.20;;;6.20;99.90;;;5.40;100.00;101637.13;4200144;28;20035;-74
2023/04/07 00:17:08;;;;;;;10.35;4.53;;;6.20;99.90;;;5.40;100.00;101631.91;4200321;28;20118;-74
2023/04/07 00:19:09;;;;;;;7.93;3.47;;;6.20;99.90;;;5.41;100.00;101632.72;4200070;28;20491;-74
2023/04/07 00:21:10;;;;;;;12.02;5.20;;;6.20;99.90;;;5.40;100.00;101629.28;4183510;28;20021;-74
2023/04/07 00:23:11;;;;;;;14.93;4.72;;;6.20;99.90;;;5.39;100.00;101630.22;4201292;28;20029;-74
2023/04/07 00:25:11;;;;;;;10.07;3.92;;;6.20;99.90;;;5.34;100.00;101632.31;4201388;28;20050;-74
2023/04/07 00:27:12;;;;;;;11.73;4.25;;;6.20;99.90;;;5.33;100.00;101629.78;4200194;28;20396;-74
2023/04/07 00:29:13;;;;;;;8.93;3.40;;;6.20;99.90;;;5.31;100.00;101627.28;4183454;28;20064;-74
2023/04/07 00:31:14;;;;;;;9.85;3.42;;;6.10;99.90;;;5.30;100.00;101622.13;4199967;28;20029;-74
2023/04/07 00:33:15;;;;;;;7.95;2.17;;;6.10;99.90;;;5.25;100.00;101618.97;4201094;28;20024;-74
2023/04/07 00:35:16;;;;;;;7.60;2.20;;;6.00;99.90;;;5.21;100.00;101615.72;4200111;28;20028;-74
2023/04/07 00:37:18;;;;;;;7.68;2.53;;;6.00;99.90;;;5.17;100.00;101613.41;4201286;28;20075;-74
2023/04/07 00:39:20;;;;;;;11.95;2.83;;;6.00;99.90;;;5.16;100.00;101620.41;4201407;28;20107;-74
2023/04/07 00:41:21;;;;;;;8.13;1.90;;;6.00;99.90;;;5.13;100.00;101607.53;4204029;28;20025;-74
2023/04/07 00:43:21;;;;;;;6.68;2.00;;;5.90;99.90;;;5.09;100.00;101613.91;4219332;28;20558;-74
2023/04/07 00:45:22;;;;;;;6.32;1.90;;;5.90;99.90;;;5.10;100.00;101612.97;4203032;28;20028;-74
2023/04/07 00:47:23;;;;;;;6.30;2.22;;;5.90;99.90;;;5.08;100.00;101614.81;4204120;28;20035;-74
2023/04/07 00:49:27;;;;;;;11.82;2.10;;;5.90;99.90;;;5.06;100.00;101611.47;4203767;28;20047;-74
2023/04/07 00:51:28;;;;;;;6.65;1.83;;;5.90;99.90;;;5.03;100.00;101607.28;4202991;28;20419;-74
2023/04/07 00:53:29;;;;;;;9.18;2.35;;;5.90;99.90;;;5.04;100.00;101608.16;4202787;28;20031;-74
2023/04/07 00:55:30;;;;;;;6.88;2.45;;;5.90;99.90;;;5.01;100.00;101611.81;4204057;28;20506;-74
2023/04/07 00:57:30;;;;;;;5.30;2.13;;;5.90;99.90;;;5.00;100.00;101614.50;4203860;28;20032;-74
2023/04/07 00:59:31;;;;;;;6.82;2.20;;;5.80;99.90;;;4.94;100.00;101609.66;4204020;28;20020;-74
2023/04/07 01:01:51;;;;;;;8.45;2.10;;;5.80;99.90;;;4.89;100.00;101609.97;4203921;28;20036;-74
2023/04/07 01:04:12;;;;;;;5.45;1.52;;;5.70;99.90;;;4.86;100.00;101610.16;4187497;28;20036;-74
2023/04/07 01:06:17;;;;;;;10.82;2.60;;;5.70;99.90;;;4.79;100.00;101608.03;4202869;28;20024;-74
2023/04/07 01:08:44;;;;;;;10.57;2.88;;;5.70;99.90;;;4.76;100.00;101621.28;4202821;28;20032;-74
2023/04/07 01:10:58;;;;;;;4.53;1.63;;;5.70;99.90;;;4.71;100.00;101616.38;4203944;28;20035;-74
2023/04/07 01:13:11;;;;;;;9.07;1.50;;;5.60;99.90;;;4.69;100.00;101613.00;4202582;28;20024;-74
2023/04/07 01:15:12;;;;;;;8.18;1.80;;;5.50;99.90;;;4.66;100.00;101607.97;4202515;28;20043;-74
2023/04/07 01:17:15;;;;;;;6.63;2.95;;;5.50;99.90;;;4.61;100.00;101599.59;4203978;28;20028;-74
2023/04/07 01:19:41;;;;;;;4.20;1.98;;;5.50;99.90;;;4.60;100.00;101608.34;4202303;28;20024;-74
2023/04/07 01:21:45;;;;;;;7.68;2.17;;;5.40;99.90;;;4.57;100.00;101611.16;4202462;28;20450;-74
2023/04/07 01:24:17;;;;;;;6.50;1.85;;;5.40;99.90;;;4.56;100.00;101616.50;4202531;28;20460;-74
2023/04/07 01:26:23;;;;;;;11.48;2.58;;;5.40;99.90;;;4.49;100.00;101616.03;4202624;28;20077;-74
2023/04/07 01:28:33;;;;;;;7.47;2.13;;;5.40;99.90;;;4.46;100.00;101611.00;4202287;28;20103;-74
2023/04/07 01:30:40;;;;;;;5.38;2.75;;;5.30;99.90;;;4.41;100.00;101602.63;4203749;28;20028;-74
2023/04/07 01:32:45;;;;;;;12.98;3.25;;;5.30;99.90;;;4.43;100.00;101617.25;4202146;28;20031;-74
2023/04/07 01:34:51;;;;;;;8.80;2.13;;;5.30;99.90;;;4.42;100.00;101619.97;4185536;28;20032;-74
2023/04/07 01:36:54;;;;;;;5.20;2.67;;;5.20;99.90;;;4.39;100.00;101615.75;4196853;28;20029;-74
2023/04/07 01:38:57;;;;;;;6.05;2.22;;;5.20;99.90;;;4.38;100.00;101624.53;4228724;28;20081;-74
2023/04/07 01:41:00;;;;;;;6.03;2.20;;;5.20;99.90;;;4.31;100.00;101606.72;4203305;28;20029;-74
2023/04/07 01:43:02;;;;;;;9.57;2.58;;;5.20;99.90;;;4.21;100.00;101611.66;4201743;28;20068;-74
2023/04/07 01:45:04;;;;;;;6.32;2.20;;;5.10;99.90;;;4.17;100.00;101604.13;4202214;28;20457;-74
2023/04/07 01:47:05;;;;;;;9.63;2.92;;;5.10;99.90;;;4.13;100.00;101611.31;4203179;28;20021;-74
2023/04/07 01:49:07;;;;;;;3.38;2.25;;;5.00;99.90;;;4.10;100.00;101613.25;4201769;28;20032;-74
2023/04/07 01:51:10;;;;;;;5.75;2.72;;;5.00;99.90;;;4.06;100.00;101611.78;4202082;28;20474;-74
2023/04/07 01:53:11;;;;;;;8.05;2.75;;;4.90;99.90;;;4.01;100.00;101617.25;4201930;28;20083;-74
2023/04/07 01:55:13;;;;;;;5.57;2.45;;;4.90;99.90;;;3.93;100.00;101611.69;4203138;28;20046;-75
2023/04/07 01:57:14;;;;;;;9.50;3.47;;;4.90;99.90;;;3.87;100.00;101612.88;4201767;28;20021;-74
2023/04/07 01:59:15;;;;;;;5.75;2.40;;;4.80;99.90;;;3.90;100.00;101611.88;4199780;28;20028;-74
2023/04/07 02:01:16;;;;;;;5.82;2.53;;;4.80;99.90;;;3.85;100.00;101616.53;4203055;28;20020;-74
2023/04/07 02:03:22;;;;;;;7.13;3.13;;;4.70;99.90;;;3.80;100.00;101613.34;4201591;28;20032;-74
2023/04/07 02:05:25;;;;;;;5.80;2.35;;;4.70;99.90;;;3.82;100.00;101616.72;4201625;28;20052;-74
2023/04/07 02:07:40;;;;;;;10.27;2.63;;;4.70;99.90;;;3.78;100.00;101621.25;4202766;28;20035;-74
2023/04/07 02:09:42;;;;;;;6.10;1.98;;;4.70;99.90;;;3.74;100.00;101618.91;4202443;28;20024;-74
2023/04/07 02:11:45;;;;;;;7.35;2.63;;;4.60;99.90;;;3.70;100.00;101622.66;4202857;28;20507;-74
2023/04/07 02:13:47;;;;;;;6.35;2.58;;;4.60;99.90;;;3.70;100.00;101620.84;4201405;28;20116;-74
2023/04/07 02:15:50;;;;;;;6.72;2.40;;;4.60;99.90;;;3.68;100.00;101616.66;4202712;28;20029;-74
2023/04/07 02:17:53;;;;;;;5.32;1.83;;;4.50;99.90;;;3.64;100.00;101615.19;4201298;28;20025;-74
2023/04/07 02:19:56;;;;;;;6.70;2.05;;;4.50;99.90;;;3.59;100.00;101619.81;4201389;28;20032;-74
2023/04/07 02:21:58;;;;;;;13.63;3.75;;;4.50;99.90;;;3.52;100.00;101615.91;4201557;28;20024;-74
2023/04/07 02:24:01;;;;;;;6.95;2.22;;;4.40;99.90;;;3.49;100.00;101619.53;4201478;28;20020;-74
2023/04/07 02:26:02;;;;;;;6.05;1.90;;;4.40;99.90;;;3.49;100.00;101626.53;4201308;28;20028;-74
2023/04/07 02:28:05;;;;;;;10.00;2.30;;;4.40;99.90;;;3.52;100.00;101626.34;4202458;28;20042;-74
2023/04/07 02:30:07;;;;;;;8.45;2.10;;;4.40;99.90;;;3.56;100.00;101622.59;4201543;28;20381;-74
2023/04/07 02:32:07;;;;;;;6.10;2.10;;;4.40;99.90;;;3.58;100.00;101629.44;4201177;28;20050;-74
2023/04/07 02:34:08;;;;;;;9.23;2.55;;;4.50;99.90;;;3.65;100.00;101625.53;4184479;28;20025;-74
2023/04/07 02:36:09;;;;;;;5.10;2.53;;;4.50;99.90;;;3.69;100.00;101629.63;4202204;28;20048;-74
2023/04/07 02:38:10;;;;;;;9.32;3.03;;;4.50;99.90;;;3.73;100.00;101628.50;4202514;28;20024;-75
2023/04/07 02:40:12;;;;;;;9.15;2.85;;;4.60;99.90;;;3.77;100.00;101627.41;4201330;28;20107;-74
2023/04/07 02:42:12;;;;;;;9.40;2.50;;;4.60;99.90;;;3.84;100.00;101630.50;4202068;28;20103;-74
2023/04/07 02:44:13;;;;;;;5.97;2.58;;;4.60;99.90;;;3.87;100.00;101638.16;4202573;28;20029;-74
2023/04/07 02:46:14;;;;;;;9.05;2.78;;;4.60;99.90;;;3.87;100.00;101625.09;4202065;28;20025;-74
2023/04/07 02:48:15;;;;;;;8.48;2.72;;;4.70;99.90;;;3.89;100.00;101626.69;4202236;28;20395;-74
2023/04/07 02:50:16;;;;;;;12.10;3.00;;;4.70;99.90;;;3.95;100.00;101635.91;4202309;28;20044;-74
2023/04/07 02:52:17;;;;;;;7.90;3.20;;;4.70;99.90;;;3.90;100.00;101630.13;4202202;28;20102;-75
2023/04/07 02:54:18;;;;;;;14.13;4.30;;;4.70;99.90;;;3.91;100.00;101630.03;4202066;28;20045;-74
2023/04/07 02:56:18;;;;;;;6.65;2.95;;;4.70;99.90;;;3.94;100.00;101633.41;4184274;28;20025;-74
2023/04/07 02:58:19;;;;;;;9.88;3.38;;;4.80;99.90;;;3.95;100.00;101630.69;4202139;28;20035;-74
2023/04/07 03:00:20;;;;;;;7.15;3.42;;;4.80;99.90;;;3.93;100.00;101632.56;4202166;28;20012;-74
2023/04/07 03:02:21;;;;;;;10.48;2.80;;;4.80;99.90;;;3.93;100.00;101629.94;4200528;28;20020;-75
2023/04/07 03:04:22;;;;;;;9.45;3.20;;;4.80;99.90;;;3.89;100.00;101626.69;4201805;28;20024;-74
2023/04/07 03:06:23;;;;;;;8.13;2.55;;;4.80;99.90;;;3.94;100.00;101629.03;4200799;28;20059;-74
2023/04/07 03:08:24;;;;;;;12.85;3.17;;;4.70;99.90;;;3.91;100.00;101629.22;4200881;28;20056;-74
2023/04/07 03:10:25;;;;;;;6.43;2.85;;;4.80;99.90;;;3.92;100.00;101629.09;4217399;28;20066;-74
2023/04/07 03:12:26;;;;;;;8.77;2.30;;;4.70;99.90;;;3.86;100.00;101621.63;4200839;28;20021;-74
2023/04/07 03:14:27;;;;;;;9.20;2.53;;;4.80;99.90;;;3.84;100.00;101623.50;4200782;28;20040;-74
2023/04/07 03:16:27;;;;;;;10.07;3.05;;;4.70;99.90;;;3.85;100.00;101633.00;4200607;28;20027;-74
2023/04/07 03:18:28;;;;;;;16.70;2.90;;;4.70;99.90;;;3.86;100.00;101636.44;4201633;28;20025;-74
2023/04/07 03:20:29;;;;;;;7.25;2.50;;;4.70;99.90;;;3.80;100.00;101622.00;4201989;28;20021;-75
2023/04/07 03:22:30;;;;;;;10.05;2.85;;;4.70;99.90;;;3.81;100.00;101630.69;4200762;28;20033;-74
2023/04/07 03:24:31;;;;;;;7.00;2.40;;;4.70;99.90;;;3.74;100.00;101622.38;4201893;28;20032;-74
2023/04/07 03:26:31;;;;;;;10.43;2.40;;;4.70;99.90;;;3.77;100.00;101623.94;4200501;28;20036;-74
2023/04/07 03:28:32;;;;;;;7.22;2.33;;;4.60;99.90;;;3.72;100.00;101621.63;4200612;28;20028;-74
2023/04/07 03:30:33;;;;;;;7.40;2.72;;;4.60;99.90;;;3.71;100.00;101622.53;4200621;28;20097;-74
2023/04/07 03:32:34;;;;;;;7.35;2.50;;;4.60;99.90;;;3.67;100.00;101618.47;4201513;28;20086;-74
2023/04/07 03:34:35;;;;;;;6.65;2.35;;;4.60;99.90;;;3.68;100.00;101621.88;4201649;28;20055;-75
2023/04/07 03:36:36;;;;;;;7.40;3.10;;;4.60;99.90;;;3.57;100.00;101619.91;4201355;28;20395;-74
2023/04/07 03:38:36;;;;;;;7.53;2.50;;;4.50;99.90;;;3.47;100.00;101618.75;4201797;28;20029;-75
2023/04/07 03:40:37;;;;;;;8.50;2.28;;;4.40;99.90;;;3.42;100.00;101623.41;4200526;28;20040;-75
2023/04/07 03:42:39;;;;;;;7.20;2.50;;;4.40;99.90;;;3.40;100.00;101614.84;4200344;28;20084;-74
2023/04/07 03:44:39;;;;;;;4.75;2.00;;;4.30;99.90;;;3.42;100.00;101623.41;4200480;28;20032;-74
2023/04/07 03:46:40;;;;;;;9.38;2.30;;;4.30;99.90;;;3.42;100.00;101622.56;4201605;28;20040;-74
2023/04/07 03:48:41;;;;;;;7.00;2.20;;;4.30;99.90;;;3.39;100.00;101617.53;4201021;28;20013;-74
2023/04/07 03:50:42;;;;;;;6.28;2.33;;;4.30;99.90;;;3.41;100.00;101623.50;4201580;28;20040;-74
2023/04/07 03:52:43;;;;;;;5.47;2.00;;;4.30;99.90;;;3.37;100.00;101616.78;4201612;28;20122;-74
2023/04/07 03:54:44;;;;;;;6.10;2.25;;;4.30;99.90;;;3.29;100.00;101607.63;4201707;28;20028;-74
2023/04/07 03:56:45;;;;;;;8.60;2.00;;;4.20;99.90;;;3.28;100.00;101613.81;4200466;28;20384;-75
2023/04/07 03:58:47;;;;;;;8.68;2.13;;;4.20;99.90;;;3.25;100.00;101619.19;4201589;28;20036;-74
2023/04/07 04:00:48;;;;;;;9.95;2.20;;;4.20;99.90;;;3.23;100.00;101614.97;4200047;28;20074;-74
2023/04/07 04:02:49;;;;;;;8.35;3.13;;;4.20;99.90;;;3.19;100.00;101610.88;4183537;28;20443;-74
2023/04/07 04:04:50;;;;;;;4.80;1.95;;;4.20;99.90;;;3.19;100.00;101606.50;4200404;28;20056;-74
2023/04/07 04:06:51;;;;;;;7.07;2.10;;;4.10;99.90;;;3.26;100.00;101612.19;4201140;28;20047;-74
2023/04/07 04:08:52;;;;;;;4.15;2.20;;;4.10;99.90;;;3.26;100.00;101620.84;4201375;28;20029;-74
2023/04/07 04:10:53;;;;;;;10.68;2.45;;;4.20;99.90;;;3.23;100.00;101614.97;4201617;28;20098;-74
2023/04/07 04:12:54;;;;;;;2.53;1.70;;;4.10;99.90;;;3.23;100.00;101614.97;4201387;28;20036;-74
2023/04/07 04:14:55;;;;;;;6.43;2.10;;;4.10;99.90;;;3.22;100.00;101608.94;4200819;28;20029;-75
2023/04/07 04:16:56;;;;;;;7.22;1.88;;;4.10;99.90;;;3.22;100.00;101615.91;4204444;28;20028;-74
2023/04/07 04:18:56;;;;;;;9.52;2.92;;;4.10;99.90;;;3.19;100.00;101608.28;4203303;28;20085;-74
2023/04/07 04:20:57;;;;;;;5.18;1.98;;;4.10;99.90;;;3.16;100.00;101608.44;4204721;28;20024;-74
2023/04/07 04:22:58;;;;;;;6.82;2.47;;;4.10;99.90;;;3.11;100.00;101606.06;4204681;28;20036;-74
2023/04/07 04:25:00;;;;;;;9.38;2.50;;;4.10;99.90;;;3.05;100.00;101601.22;4203187;28;20032;-75
2023/04/07 04:27:00;;;;;;;10.68;2.17;;;4.00;99.90;;;3.03;100.00;101591.81;4203358;28;20025;-74
2023/04/07 04:29:02;;;;;;;6.65;2.22;;;4.00;99.90;;;3.02;100.00;101600.53;4204489;28;20028;-74
2023/04/07 04:31:03;;;;;;;12.20;2.65;;;3.90;99.90;;;3.00;100.00;101600.66;4204419;28;20391;-74
2023/04/07 04:33:04;;;;;;;6.30;2.28;;;3.90;99.90;;;3.01;100.00;101602.34;4204007;28;20039;-74
2023/04/07 04:35:05;;;;;;;3.95;1.90;;;3.90;99.90;;;3.00;100.00;101600.66;4204244;28;20023;-75
2023/04/07 04:37:07;;;;;;;6.78;2.20;;;3.90;99.90;;;2.92;100.00;101589.81;4204415;28;20040;-74
2023/04/07 04:39:08;;;;;;;6.25;2.17;;;3.90;99.90;;;2.89;100.00;101600.41;4203305;28;20025;-74
2023/04/07 04:41:08;;;;;;;7.70;2.10;;;3.80;99.90;;;2.90;100.00;101606.47;4186362;28;20039;-74
2023/04/07 04:43:09;;;;;;;6.60;2.33;;;3.80;99.90;;;2.85;100.00;101596.28;4204062;28;20082;-74
2023/04/07 04:45:10;;;;;;;5.50;2.67;;;3.80;99.90;;;2.86;100.00;101599.75;4203153;28;20029;-74
2023/04/07 04:47:11;;;;;;;9.68;2.63;;;3.80;99.90;;;2.85;100.00;101596.28;4203047;28;20059;-74
2023/04/07 04:49:13;;;;;;;9.75;2.70;;;3.80;99.90;;;2.89;100.00;101599.56;4203872;28;20060;-74
2023/04/07 04:51:14;;;;;;;4.68;2.22;;;3.80;99.90;;;2.86;100.00;101600.59;4204382;28;20048;-74
2023/04/07 04:53:15;;;;;;;10.13;2.00;;;3.80;99.90;;;2.87;100.00;101604.84;4204154;28;20029;-74
2023/04/07 04:55:16;;;;;;;7.22;2.60;;;3.80;99.90;;;2.82;100.00;101599.06;4204031;28;20515;-74
2023/04/07 04:57:17;;;;;;;4.03;2.00;;;3.80;99.90;;;2.76;100.00;101600.25;4203939;28;20032;-74
2023/04/07 04:59:17;;;;;;;6.57;2.00;;;3.70;99.90;;;2.70;100.00;101603.19;4202815;28;20028;-74
2023/04/07 05:01:18;;;;;;;6.55;2.67;;;3.70;99.90;;;2.70;100.00;101607.56;4203961;28;20480;-74
2023/04/07 05:03:19;;;;;;;10.50;2.38;;;3.70;99.90;;;2.62;100.00;101610.59;4203899;28;20033;-74
2023/04/07 05:05:20;;;;;;;12.50;2.75;;;3.60;99.90;;;2.56;100.00;101603.13;4202557;28;20037;-75
2023/04/07 05:07:21;;;;;;;7.80;2.50;;;3.50;99.90;;;2.53;100.00;101605.91;4204027;28;20021;-74
2023/04/07 05:09:22;;;;;;;8.70;3.17;;;3.50;99.90;;;2.52;100.00;101613.78;4203922;28;20036;-74
2023/04/07 05:11:22;;;;;;;7.15;2.60;;;3.50;99.90;;;2.52;100.00;101614.63;4203791;28;20391;-74
2023/04/07 05:13:24;;;;;;;5.47;2.15;;;3.50;99.90;;;2.54;100.00;101611.94;4203803;28;20032;-74
2023/04/07 05:15:26;;;;;;;9.15;2.40;;;3.50;99.90;;;2.54;100.00;101614.56;4203550;28;20024;-74
2023/04/07 05:17:26;;;;;;;5.43;1.92;;;3.50;99.90;;;2.55;100.00;101619.66;4202444;28;20050;-74
2023/04/07 05:19:28;;;;;;;12.65;3.65;;;3.50;99.90;;;2.56;100.00;101617.91;4203733;28;20029;-74
2023/04/07 05:21:29;;;;;;;4.28;2.20;;;3.50;99.90;;;2.57;100.00;101619.59;4202394;28;20025;-74
2023/04/07 05:23:30;;;;;;;11.55;3.05;;;3.50;99.90;;;2.59;100.00;101620.34;4202424;28;20028;-74
2023/04/07 05:25:32;;;;;;;6.10;2.53;;;3.50;99.90;;;2.60;100.00;101622.00;4203350;28;20028;-75
2023/04/07 05:27:33;;;;;;;9.93;3.30;;;3.50;99.90;;;2.59;100.00;101626.41;4202392;28;20020;-74
2023/04/07 05:29:33;;;;;;;7.45;3.15;;;3.50;99.90;;;2.64;100.00;101633.94;4202367;28;20130;-74
2023/04/07 05:31:36;;;;;;;11.18;2.67;;;3.50;99.90;;;2.67;100.00;101637.22;4202186;28;20028;-75
2023/04/07 05:33:36;;;;;;;5.32;2.55;;;3.50;99.90;;;2.67;100.00;101623.38;4202797;28;20024;-74
2023/04/07 05:35:37;;;;;;;7.00;2.20;;;3.50;99.90;;;2.69;100.00;101635.38;4202121;28;20070;-74
2023/04/07 05:37:38;;;;;;;4.32;2.13;;;3.60;99.90;;;2.66;100.00;101629.47;4203399;28;20094;-74
2023/04/07 05:39:39;;;;;;;4.03;2.20;;;3.60;99.90;;;2.64;100.00;101631.34;4203189;28;20032;-74
2023/04/07 05:41:41;;;;;;;6.28;2.40;;;3.50;99.90;;;2.64;100.00;101629.59;4202094;28;20476;-74
2023/04/07 05:43:41;;;;;;;5.97;1.95;;;3.50;99.90;;;2.64;100.00;101633.94;4203081;28;20046;-74
2023/04/07 05:45:42;;;;;;;3.80;2.15;;;3.50;99.90;;;2.63;100.00;101634.84;4201949;28;20487;-74
2023/04/07 05:47:43;;;;;;;4.15;2.67;;;3.50;99.90;;;2.63;100.00;101640.06;4202854;28;20055;-74
2023/04/07 05:49:47;;;;;;;5.38;2.50;;;3.60;99.90;;;2.59;100.00;101635.97;4218760;28;20055;-74
2023/04/07 05:51:47;;;;;;;5.47;3.23;;;3.50;99.90;;;2.56;100.00;101643.94;4203177;28;20043;-74
2023/04/07 05:53:48;;;;;;;6.25;2.53;;;3.50;99.90;;;2.54;100.00;101645.81;4202966;28;20028;-74
2023/04/07 05:55:49;;;;;;;11.02;2.88;;;3.50;99.90;;;2.52;100.00;101640.66;4203061;28;20032;-74
2023/04/07 05:57:50;;;;;;;8.13;3.22;;;3.50;99.90;;;2.57;100.00;101646.44;4203154;28;20020;-74
2023/04/07 05:59:51;;;;;;;3.65;2.78;;;3.50;99.90;;;2.57;100.00;101643.03;4203055;28;20024;-74
2023/04/07 06:01:52;;;;;;;7.40;2.65;;;3.50;99.90;;;2.57;100.00;101649.06;4202943;28;20024;-74
2023/04/07 06:03:52;;;;;;;6.05;2.55;;;3.50;99.90;;;2.56;100.00;101649.16;4218135;28;20022;-74
2023/04/07 06:05:53;;;;;;;6.55;2.60;;;3.50;99.90;;;2.60;100.00;101653.25;4202873;28;20025;-74
2023/04/07 06:07:54;;;;;;;7.75;2.67;;;3.50;99.90;;;2.62;100.00;101659.25;4202986;28;20484;-74
2023/04/07 06:09:55;;;;;;;7.40;2.33;;;3.50;99.90;;;2.64;100.00;101652.19;4203009;28;20032;-74
2023/04/07 06:11:56;;;;;;;6.43;2.95;;;3.50;99.90;;;2.66;100.00;101647.72;4202735;28;20059;-74
2023/04/07 06:13:57;;;;;;;5.78;2.50;;;3.50;99.90;;;2.72;100.00;101652.59;4201487;28;20021;-74
2023/04/07 06:15:58;;;;;;;6.78;3.00;;;3.60;99.90;;;2.72;100.00;101648.22;4201985;28;20029;-74
2023/04/07 06:17:59;;;;;;;11.38;2.80;;;3.60;99.90;;;2.73;100.00;101662.09;4218069;28;20016;-74
2023/04/07 06:19:59;;;;;;;8.95;3.10;;;3.60;99.90;;;2.68;100.00;101656.31;4202800;28;20375;-74
2023/04/07 06:22:00;;;;;;;5.97;2.63;;;3.60;99.90;;;2.69;100.00;101660.56;4202805;28;20066;-74
2023/04/07 06:24:01;;;;;;;5.55;2.47;;;3.60;99.90;;;2.76;100.00;101652.34;4184891;28;20025;-74
2023/04/07 06:26:02;;;;;;;8.68;2.85;;;3.70;99.90;;;2.84;100.00;101654.53;4201435;28;20036;-74
2023/04/07 06:28:03;;;;;;;7.53;3.20;;;3.70;99.90;;;2.90;100.00;101654.19;4202587;28;20507;-75
2023/04/07 06:30:05;;;;;;;6.78;3.70;;;3.80;99.90;;;2.91;100.00;101650.66;4202582;28;20040;-74
2023/04/07 06:32:06;;;;;;;8.45;3.22;;;3.70;99.90;;;3.00;100.00;101650.16;4201414;28;20052;-74
2023/04/07 06:34:07;;;;;;;6.25;3.03;;;3.90;99.90;;;3.05;100.00;101655.94;4201058;28;20036;-74
2023/04/07 06:36:08;;;;;;;10.13;3.30;;;3.90;99.90;;;3.09;100.00;101656.63;4201140;28;20028;-74
2023/04/07 06:38:10;;;;;;;8.77;4.78;;;3.90;99.90;;;3.15;100.00;101657.13;4201749;28;20035;-75
2023/04/07 06:40:11;;;;;;;12.32;4.68;;;4.00;99.90;;;3.21;100.00;101648.13;4201184;28;20025;-75
2023/04/07 06:42:12;;;;;;;13.80;4.97;;;4.10;99.90;;;3.24;100.00;101640.13;4202089;28;20105;-74
2023/04/07 06:44:13;;;;;;;13.95;5.32;;;4.10;99.90;;;3.32;100.00;101653.56;4202294;28;20033;-74
2023/04/07 06:46:13;;;;;;;9.73;4.32;;;4.20;99.90;;;3.35;100.00;101662.03;4202214;28;20024;-74
2023/04/07 06:48:15;;;;;;;12.55;4.65;;;4.20;99.90;;;3.40;100.00;101663.56;4202061;28;20025;-74
2023/04/07 06:50:19;;;;;;;9.30;4.70;;;4.20;99.90;;;3.45;100.00;101661.53;4201031;28;20032;-75
2023/04/07 06:52:20;;;;;;;7.93;4.47;;;4.20;99.90;;;3.50;100.00;101664.69;4202340;28;20553;-74
2023/04/07 06:54:21;;;;;;;8.38;3.85;;;4.30;99.90;;;3.56;100.00;101665.19;4201798;28;20024;-75
2023/04/07 06:56:22;;;;;;;9.20;3.17;;;4.40;99.90;;;3.64;100.00;101662.16;4202209;28;20029;-75
2023/04/07 06:58:23;;;;;;;10.20;3.80;;;4.40;99.90;;;3.74;100.00;101663.28;4202246;28;20024;-74
2023/04/07 07:00:25;;;;;;;9.88;4.10;;;4.50;99.90;;;3.83;100.00;101655.75;4201036;28;20025;-75
2023/04/07 07:02:25;;;;;;;10.73;4.47;;;4.60;99.90;;;3.94;100.00;101655.13;4200667;28;20039;-75
2023/04/07 07:04:26;;;;;;;10.20;4.97;;;4.70;99.90;;;4.16;100.00;101659.88;4201065;28;20039;-74
2023/04/07 07:06:27;;;;;;;7.43;4.68;;;4.90;99.90;;;4.43;100.00;101659.06;4200530;28;20032;-75
2023/04/07 07:08:29;;;;;;;9.13;4.05;;;5.10;99.90;;;4.72;100.00;101659.03;4201300;28;20028;-75
2023/04/07 07:10:30;;;;;;;9.35;4.05;;;5.30;99.90;;;4.93;100.00;101657.66;4201887;28;20432;-75
2023/04/07 07:12:32;;;;;;;8.45;3.90;;;5.50;99.90;;;5.11;100.00;101655.66;4202064;28;20031;-74
2023/04/07 07:14:32;;;;;;;8.63;4.47;;;5.60;99.90;;;5.23;100.00;101660.06;4200789;28;20029;-74
2023/04/07 07:16:33;;;;;;;9.38;4.53;;;5.80;99.90;;;5.30;100.00;101659.59;4201675;28;20087;-75
2023/04/07 07:18:35;;;;;;;10.05;4.00;;;6.00;99.90;;;5.43;100.00;101664.88;4200374;28;20020;-75
2023/04/07 07:20:36;;;;;;;8.05;3.65;;;6.10;99.90;;;5.61;100.00;101666.28;4202027;28;20032;-75
2023/04/07 07:22:37;;;;;;;16.33;4.00;;;6.20;99.90;;;5.81;100.00;101672.78;4200483;28;20024;-74
2023/04/07 07:24:38;;;;;;;8.13;3.20;;;6.40;99.90;;;5.92;100.00;101679.00;4201832;28;20483;-74
2023/04/07 07:26:40;;;;;;;10.50;4.20;;;6.50;99.90;;;6.05;100.00;101673.78;4201863;28;20028;-74
2023/04/07 07:28:41;;;;;;;9.80;4.05;;;6.70;99.90;;;6.15;100.00;101671.38;4201797;28;20091;-74
2023/04/07 07:30:42;;;;;;;8.82;4.07;;;6.70;99.90;;;6.27;100.00;101668.75;4200733;28;20032;-75
2023/04/07 07:32:43;;;;;;;14.27;4.20;;;6.90;99.90;;;6.41;100.00;101667.78;4201491;28;20074;-74
2023/04/07 07:34:44;;;;;;;11.50;3.80;;;6.90;99.90;;;6.52;100.00;101663.47;4201655;28;20041;-74
2023/04/07 07:36:45;;;;;;;12.43;3.85;;;7.00;99.90;;;6.50;100.00;101660.13;4201808;28;20365;-74
2023/04/07 07:38:45;;;;;;;14.07;4.40;;;7.10;99.90;;;6.52;100.00;101655.63;4201626;28;20035;-75
2023/04/07 07:40:46;;;;;;;12.70;3.97;;;7.20;99.90;;;6.67;100.00;101657.16;4201705;28;20025;-74
2023/04/07 07:42:47;;;;;;;11.52;4.75;;;7.30;99.90;;;6.80;100.00;101658.91;4201494;28;20032;-75
2023/04/07 07:44:48;;;;;;;17.40;4.40;;;7.40;99.90;;;6.83;100.00;101653.44;4201770;28;20071;-75
2023/04/07 07:46:50;;;;;;;19.27;4.95;;;7.50;99.90;;;6.96;100.00;101659.50;4201753;28;20028;-75
2023/04/07 07:48:51;;;;;;;10.02;4.93;;;7.60;99.90;;;7.12;100.00;101660.06;4200807;28;20020;-75
2023/04/07 07:50:52;;;;;;;14.18;4.68;;;7.70;99.90;;;7.35;100.00;101661.81;4204971;28;20028;-76
2023/04/07 07:52:52;;;;;;;13.13;5.10;;;7.90;99.90;;;7.51;100.00;101656.28;4203869;28;20066;-76
2023/04/07 07:54:53;;;;;;;14.52;5.15;;;8.10;99.90;;;7.39;100.00;101651.94;4205051;28;20033;-75
2023/04/07 07:56:54;;;;;;;11.60;5.25;;;8.20;99.90;;;7.34;100.00;101657.53;4205152;28;20017;-75
2023/04/07 07:58:55;;;;;;;13.35;4.78;;;8.20;99.90;;;7.49;100.00;101653.78;4204777;28;20029;-75
2023/04/07 08:00:56;;;;;;;9.77;5.25;;;8.20;99.90;;;7.76;100.00;101654.31;4203808;28;20515;-75
2023/04/07 08:02:57;;;;;;;14.90;5.05;;;8.40;99.90;;;8.08;100.00;101645.78;4204601;28;20093;-75
2023/04/07 08:04:57;;;;;;;9.05;5.05;;;8.60;99.90;;;8.14;100.00;101654.06;4204862;28;20028;-75
2023/04/07 08:06:58;;;;;;;12.30;5.20;;;8.80;99.90;;;8.37;100.00;101662.81;4203591;28;20044;-75
2023/04/07 08:08:59;;;;;;;9.93;4.90;;;8.90;99.90;;;8.59;100.00;101652.28;4204805;28;20031;-76
2023/04/07 08:11:00;;;;;;;9.45;5.57;;;9.20;99.90;;;8.78;100.00;101659.56;4204808;28;20059;-76
2023/04/07 08:13:01;;;;;;;9.43;4.50;;;9.40;99.90;;;8.45;100.00;101664.84;4203384;28;20017;-75
2023/04/07 08:15:02;;;;;;;22.67;5.25;;;9.40;99.90;;;8.41;100.00;101664.25;4204773;28;20036;-75
2023/04/07 08:17:03;;;;;;;41.97;6.80;;;9.40;99.90;;;8.61;100.00;101666.16;4204288;28;20036;-76
2023/04/07 08:19:04;;;;;;;11.57;4.80;;;9.50;99.90;;;8.85;100.00;101656.31;4204519;28;20102;-75
2023/04/07 08:21:06;;;;;;;13.95;5.55;;;9.70;99.90;;;9.17;100.00;101669.50;4204617;28;20096;-75
2023/04/07 08:23:06;;;;;;;14.27;5.22;;;10.00;99.90;;;9.28;100.00;101666.00;4203425;28;20033;-76
2023/04/07 08:25:08;;;;;;;16.20;4.72;;;10.20;99.90;;;9.25;100.00;101663.63;4204531;28;20025;-76
2023/04/07 08:27:08;;;;;;;7.07;4.18;;;10.30;99.90;;;9.50;100.00;101675.63;4203391;28;20039;-76
2023/04/07 08:29:09;;;;;;;12.80;5.00;;;10.40;99.90;;;9.57;100.00;101666.25;4204565;28;20020;-76
2023/04/07 08:31:10;;;;;;;16.35;5.45;;;10.60;99.90;;;9.34;100.00;101658.47;4203399;28;20024;-76